Time;durP1;ratioP1;P1;durP2;ratioP2;P2;SDS_P1;SDS_P2;PMS_P1;PMS_P2;Temp;Humidity;BMP_temperature;BMP_pressure;BME280_temperature;BME280_humidity;BME280_pressure;Samples;Min_cycle;Max_cycle;Signal;HPM_P1;HPM_P2
2022/01/07 00:02:10;;;;;;;199.25;73.20;;;;;;;;;;5017182;28;20029;-83
2022/01/07 00:04:36;;;;;;;211.75;78.05;;;;;;;;;;5017092;28;20056;-84
2022/01/07 00:07:03;;;;;;;192.13;73.32;;;;;;;;;;5034297;28;20034;-83
2022/01/07 00:09:30;;;;;;;168.50;68.78;;;;;;;;;;5016928;28;20061;-83
2022/01/07 00:11:56;;;;;;;177.10;67.45;;;;;;;;;;5017007;28;20163;-83
2022/01/07 00:14:22;;;;;;;165.50;65.72;;;;;;;;;;5016985;28;20057;-83
2022/01/07 00:16:48;;;;;;;180.68;70.15;;;;;;;;;;5017006;28;20025;-83
2022/01/07 00:19:15;;;;;;;200.15;72.88;;;;;;;;;;5016717;28;20037;-83
2022/01/07 00:21:42;;;;;;;183.65;70.45;;;;;;;;;;5016821;28;20033;-83
2022/01/07 00:24:08;;;;;;;160.27;60.53;;;;;;;;;;5016831;28;20029;-83
2022/01/07 00:26:34;;;;;;;165.68;62.63;;;;;;;;;;5034469;28;20033;-84
2022/01/07 00:29:01;;;;;;;156.52;61.25;;;;;;;;;;5016521;28;20045;-83
2022/01/07 00:31:27;;;;;;;144.05;55.58;;;;;;;;;;5016608;28;20436;-83
2022/01/07 00:33:53;;;;;;;146.98;55.28;;;;;;;;;;5016540;28;20046;-84
2022/01/07 00:36:20;;;;;;;133.85;53.08;;;;;;;;;;5016676;28;20052;-83
2022/01/07 00:38:46;;;;;;;153.02;52.75;;;;;;;;;;5034409;28;20531;-83
2022/01/07 00:41:12;;;;;;;138.73;48.50;;;;;;;;;;5016609;28;20095;-83
2022/01/07 00:43:39;;;;;;;154.95;48.10;;;;;;;;;;5016467;28;20480;-83
2022/01/07 00:46:05;;;;;;;153.85;49.30;;;;;;;;;;5016455;28;20037;-83
2022/01/07 00:48:31;;;;;;;124.40;44.35;;;;;;;;;;5016282;28;20038;-83
2022/01/07 00:50:57;;;;;;;130.23;47.17;;;;;;;;;;5016400;28;20124;-83
2022/01/07 00:53:24;;;;;;;109.88;43.72;;;;;;;;;;5016190;28;20035;-83
2022/01/07 00:55:50;;;;;;;123.38;47.17;;;;;;;;;;5016363;28;20499;-83
2022/01/07 00:58:16;;;;;;;137.75;49.28;;;;;;;;;;5016261;28;20034;-83
2022/01/07 01:00:43;;;;;;;131.45;48.45;;;;;;;;;;5016169;28;20564;-83
2022/01/07 01:03:09;;;;;;;136.80;50.28;;;;;;;;;;5016089;28;20053;-83
2022/01/07 01:05:36;;;;;;;133.13;49.78;;;;;;;;;;5016643;28;20503;-83
2022/01/07 01:08:03;;;;;;;133.13;49.58;;;;;;;;;;5016064;28;20037;-83
2022/01/07 01:10:29;;;;;;;125.07;50.10;;;;;;;;;;5016031;28;20041;-83
2022/01/07 01:12:56;;;;;;;155.20;54.63;;;;;;;;;;5016072;28;20036;-83
2022/01/07 01:15:24;;;;;;;151.98;51.13;;;;;;;;;;5015981;28;20384;-83
2022/01/07 01:17:51;;;;;;;138.88;53.50;;;;;;;;;;5015730;28;20120;-83
2022/01/07 01:20:18;;;;;;;144.55;52.05;;;;;;;;;;5032795;28;20044;-83
2022/01/07 01:22:45;;;;;;;181.90;59.65;;;;;;;;;;5015965;28;20026;-84
2022/01/07 01:25:11;;;;;;;186.57;63.30;;;;;;;;;;5015965;28;20111;-83
2022/01/07 01:27:39;;;;;;;189.90;64.60;;;;;;;;;;5033702;28;20030;-83
2022/01/07 01:30:07;;;;;;;144.27;54.53;;;;;;;;;;5015797;28;20091;-84
2022/01/07 01:32:33;;;;;;;171.98;59.95;;;;;;;;;;5015739;28;20388;-85
2022/01/07 01:35:01;;;;;;;155.52;57.10;;;;;;;;;;5015945;28;20053;-84
2022/01/07 01:37:29;;;;;;;167.70;61.10;;;;;;;;;;5033633;28;20040;-84
2022/01/07 01:39:56;;;;;;;150.18;56.53;;;;;;;;;;5016062;28;20096;-84
2022/01/07 01:42:22;;;;;;;156.88;58.42;;;;;;;;;;5015690;28;20488;-84
2022/01/07 01:44:48;;;;;;;170.18;60.20;;;;;;;;;;5015685;28;20117;-84
2022/01/07 01:47:14;;;;;;;143.30;54.92;;;;;;;;;;5015730;28;20026;-84
2022/01/07 01:49:41;;;;;;;174.48;60.17;;;;;;;;;;5015738;28;20038;-83
2022/01/07 01:52:07;;;;;;;150.65;57.10;;;;;;;;;;5015750;28;20033;-84
2022/01/07 01:54:34;;;;;;;132.88;51.85;;;;;;;;;;5015713;28;20036;-84
2022/01/07 01:57:00;;;;;;;128.82;50.95;;;;;;;;;;5015642;28;20085;-84
2022/01/07 01:59:28;;;;;;;128.68;50.53;;;;;;;;;;5033414;28;20033;-84
2022/01/07 02:01:55;;;;;;;127.50;50.70;;;;;;;;;;5033591;28;20034;-85
2022/01/07 02:04:21;;;;;;;122.90;48.22;;;;;;;;;;5015651;28;20480;-84
2022/01/07 02:06:48;;;;;;;142.55;53.80;;;;;;;;;;5015526;28;20124;-84
2022/01/07 02:09:14;;;;;;;111.93;46.20;;;;;;;;;;5015454;28;20122;-84
2022/01/07 02:11:41;;;;;;;110.25;44.35;;;;;;;;;;5015208;28;20038;-84
2022/01/07 02:14:07;;;;;;;108.65;45.08;;;;;;;;;;5015525;28;20040;-84
2022/01/07 02:16:33;;;;;;;109.55;46.47;;;;;;;;;;5015609;28;20034;-84
2022/01/07 02:19:00;;;;;;;118.50;48.47;;;;;;;;;;5015540;28;20057;-84
2022/01/07 02:21:26;;;;;;;128.40;49.67;;;;;;;;;;5015510;28;20095;-84
2022/01/07 02:23:53;;;;;;;115.32;46.78;;;;;;;;;;5015237;28;20088;-84
2022/01/07 02:26:20;;;;;;;110.82;42.03;;;;;;;;;;5015406;28;20061;-84
2022/01/07 02:28:49;;;;;;;105.22;45.30;;;;;;;;;;5033316;28;20108;-84
2022/01/07 02:31:15;;;;;;;118.35;46.95;;;;;;;;;;5035343;28;20048;-84
2022/01/07 02:33:41;;;;;;;142.90;50.78;;;;;;;;;;5018712;28;20514;-84
2022/01/07 02:36:12;;;;;;;138.13;48.95;;;;;;;;;;5018865;28;20045;-84
2022/01/07 02:38:39;;;;;;;161.93;56.38;;;;;;;;;;5018864;28;20097;-84
2022/01/07 02:41:05;;;;;;;124.57;49.85;;;;;;;;;;5018562;28;20064;-83
2022/01/07 02:43:32;;;;;;;145.80;53.22;;;;;;;;;;5018685;28;20029;-84
2022/01/07 02:45:58;;;;;;;160.18;59.88;;;;;;;;;;5018684;28;20060;-84
2022/01/07 02:48:24;;;;;;;151.70;56.22;;;;;;;;;;5018602;28;20036;-84
2022/01/07 02:50:51;;;;;;;160.70;61.60;;;;;;;;;;5018506;28;20045;-84
2022/01/07 02:53:17;;;;;;;183.77;68.75;;;;;;;;;;5035946;28;20049;-84
2022/01/07 02:55:44;;;;;;;177.45;68.15;;;;;;;;;;5018259;28;20082;-83
2022/01/07 02:58:10;;;;;;;206.68;74.57;;;;;;;;;;5018423;28;20026;-83
2022/01/07 03:00:37;;;;;;;164.07;63.55;;;;;;;;;;5036028;28;20160;-83
2022/01/07 03:03:04;;;;;;;170.45;66.20;;;;;;;;;;5018402;28;20037;-83
2022/01/07 03:05:31;;;;;;;213.88;69.72;;;;;;;;;;5036063;28;20025;-83
2022/01/07 03:07:57;;;;;;;218.07;71.50;;;;;;;;;;5018219;28;20034;-83
2022/01/07 03:10:26;;;;;;;198.20;72.82;;;;;;;;;;5018031;28;20046;-83
2022/01/07 03:12:53;;;;;;;183.05;70.57;;;;;;;;;;5018174;28;20053;-83
2022/01/07 03:15:19;;;;;;;201.43;75.55;;;;;;;;;;5018110;28;20030;-83
2022/01/07 03:17:45;;;;;;;248.85;88.85;;;;;;;;;;5018031;28;20080;-83
2022/01/07 03:20:14;;;;;;;222.35;86.13;;;;;;;;;;5017925;28;20551;-83
2022/01/07 03:22:40;;;;;;;214.13;83.43;;;;;;;;;;5017942;28;20384;-83
2022/01/07 03:25:07;;;;;;;204.75;81.72;;;;;;;;;;5017931;28;20035;-83
2022/01/07 03:27:34;;;;;;;212.70;83.13;;;;;;;;;;5017861;28;20029;-83
2022/01/07 03:30:00;;;;;;;191.70;73.72;;;;;;;;;;5017772;28;20033;-83
2022/01/07 03:32:26;;;;;;;181.73;70.40;;;;;;;;;;5017695;28;20052;-83
2022/01/07 03:34:53;;;;;;;218.90;76.57;;;;;;;;;;5017700;28;20054;-83
2022/01/07 03:37:20;;;;;;;214.15;75.65;;;;;;;;;;5017614;28;20124;-83
2022/01/07 03:39:47;;;;;;;212.25;78.38;;;;;;;;;;5035051;28;20037;-83
2022/01/07 03:42:13;;;;;;;208.98;74.43;;;;;;;;;;5016623;28;20030;-83
2022/01/07 03:44:40;;;;;;;243.40;84.65;;;;;;;;;;5017567;28;20116;-83
2022/01/07 03:47:06;;;;;;;260.60;87.47;;;;;;;;;;5017475;28;20377;-83
2022/01/07 03:49:32;;;;;;;194.15;77.60;;;;;;;;;;5017259;28;20041;-83
2022/01/07 03:51:59;;;;;;;212.77;78.95;;;;;;;;;;5017445;28;20045;-83
2022/01/07 03:54:25;;;;;;;248.80;89.07;;;;;;;;;;5017229;28;20033;-83
2022/01/07 03:56:51;;;;;;;191.23;78.30;;;;;;;;;;5017266;28;20052;-83
2022/01/07 03:59:18;;;;;;;225.13;81.25;;;;;;;;;;5035172;28;20030;-84
2022/01/07 04:01:44;;;;;;;230.63;83.43;;;;;;;;;;5035102;28;20075;-83
2022/01/07 04:04:10;;;;;;;237.10;80.05;;;;;;;;;;5017114;28;20041;-83
2022/01/07 04:06:36;;;;;;;186.48;70.43;;;;;;;;;;5035396;28;20103;-84
2022/01/07 04:09:03;;;;;;;191.18;71.72;;;;;;;;;;5017029;28;20067;-84
2022/01/07 04:11:29;;;;;;;170.10;65.53;;;;;;;;;;5017023;28;20037;-84
2022/01/07 04:13:56;;;;;;;162.52;63.55;;;;;;;;;;5034741;28;20032;-84
2022/01/07 04:16:22;;;;;;;163.75;63.97;;;;;;;;;;5034763;28;20076;-84
2022/01/07 04:18:49;;;;;;;164.77;67.75;;;;;;;;;;5016900;28;20064;-83
2022/01/07 04:21:15;;;;;;;168.60;67.57;;;;;;;;;;5034333;28;20095;-84
2022/01/07 04:23:41;;;;;;;138.63;59.17;;;;;;;;;;5034768;28;20033;-84
2022/01/07 04:26:08;;;;;;;161.57;65.28;;;;;;;;;;5017330;28;20043;-84
2022/01/07 04:28:34;;;;;;;141.55;59.70;;;;;;;;;;5016809;28;20113;-84
2022/01/07 04:31:00;;;;;;;114.95;51.05;;;;;;;;;;5016554;28;20042;-84
2022/01/07 04:33:29;;;;;;;129.90;53.08;;;;;;;;;;5034363;28;20057;-84
2022/01/07 04:35:56;;;;;;;113.45;49.22;;;;;;;;;;5016678;28;20030;-84
2022/01/07 04:38:22;;;;;;;152.15;60.80;;;;;;;;;;5017154;28;20037;-84
2022/01/07 04:40:49;;;;;;;127.10;55.00;;;;;;;;;;5016607;28;20029;-84
2022/01/07 04:43:15;;;;;;;147.63;60.30;;;;;;;;;;5016514;28;20064;-84
2022/01/07 04:45:42;;;;;;;149.55;64.18;;;;;;;;;;5016532;28;20492;-84
2022/01/07 04:48:08;;;;;;;175.95;68.82;;;;;;;;;;5016371;28;20041;-84
2022/01/07 04:50:34;;;;;;;153.05;66.40;;;;;;;;;;5016273;28;20377;-85
2022/01/07 04:53:01;;;;;;;149.73;64.47;;;;;;;;;;5016156;28;20034;-84
2022/01/07 04:55:36;;;;;;;126.18;53.83;;;;;;;;;;5016351;28;20451;-84
2022/01/07 04:58:03;;;;;;;108.82;49.92;;;;;;;;;;5001097;28;20037;-84
2022/01/07 05:00:30;;;;;;;113.13;50.70;;;;;;;;;;5016283;28;20068;-84
2022/01/07 05:02:56;;;;;;;109.22;48.03;;;;;;;;;;5016242;28;20060;-84
2022/01/07 05:05:22;;;;;;;108.35;49.45;;;;;;;;;;5016225;28;20037;-84
2022/01/07 05:07:49;;;;;;;114.78;51.28;;;;;;;;;;5016203;28;20029;-84
2022/01/07 05:10:15;;;;;;;139.27;58.20;;;;;;;;;;5016002;28;20161;-84
2022/01/07 05:12:42;;;;;;;119.65;50.80;;;;;;;;;;5033861;28;20468;-84
2022/01/07 05:15:09;;;;;;;108.93;48.53;;;;;;;;;;5016036;28;20037;-84
2022/01/07 05:17:35;;;;;;;114.50;49.08;;;;;;;;;;5016077;28;20033;-84
2022/01/07 05:20:02;;;;;;;109.28;47.00;;;;;;;;;;5016134;28;20183;-84
2022/01/07 05:22:28;;;;;;;92.30;39.55;;;;;;;;;;5034105;28;20036;-84
2022/01/07 05:24:54;;;;;;;69.28;33.00;;;;;;;;;;5016032;28;20483;-84
2022/01/07 05:27:21;;;;;;;78.47;34.80;;;;;;;;;;5016001;28;20037;-84
2022/01/07 05:29:47;;;;;;;75.43;33.45;;;;;;;;;;5015807;28;20042;-84
2022/01/07 05:32:14;;;;;;;72.63;34.50;;;;;;;;;;5015998;28;20044;-84
2022/01/07 05:34:40;;;;;;;61.30;31.85;;;;;;;;;;5015900;28;20484;-84
2022/01/07 05:37:10;;;;;;;73.05;35.28;;;;;;;;;;5015805;28;20061;-84
2022/01/07 05:39:36;;;;;;;72.80;33.83;;;;;;;;;;5015893;28;20076;-84
2022/01/07 05:42:03;;;;;;;64.00;30.00;;;;;;;;;;5015927;28;20446;-85
2022/01/07 05:44:30;;;;;;;54.53;26.88;;;;;;;;;;5015866;28;20083;-84
2022/01/07 05:46:56;;;;;;;59.78;27.30;;;;;;;;;;5015847;28;20493;-85
2022/01/07 05:49:22;;;;;;;49.28;21.88;;;;;;;;;;5015626;28;20044;-84
2022/01/07 05:51:49;;;;;;;44.65;21.42;;;;;;;;;;5015783;28;20037;-84
2022/01/07 05:54:15;;;;;;;47.20;24.17;;;;;;;;;;5015517;28;20172;-84
2022/01/07 05:56:41;;;;;;;45.15;23.75;;;;;;;;;;5015616;28;20025;-84
2022/01/07 05:59:07;;;;;;;74.40;34.85;;;;;;;;;;5015450;28;20427;-85
2022/01/07 06:01:34;;;;;;;65.53;32.30;;;;;;;;;;5015700;28;20060;-84
2022/01/07 06:04:00;;;;;;;56.15;28.35;;;;;;;;;;5033550;28;20026;-84
2022/01/07 06:06:27;;;;;;;48.47;25.27;;;;;;;;;;5018401;28;20033;-85
2022/01/07 06:08:53;;;;;;;44.40;22.02;;;;;;;;;;5019335;28;20033;-85
2022/01/07 06:11:19;;;;;;;50.80;21.73;;;;;;;;;;5019163;28;20037;-85
2022/01/07 06:13:46;;;;;;;53.38;25.75;;;;;;;;;;5019409;28;20107;-84
2022/01/07 06:16:12;;;;;;;50.85;25.48;;;;;;;;;;5037031;28;20044;-85
2022/01/07 06:18:52;;;;;;;55.25;26.52;;;;;;;;;;5019218;28;20033;-84
2022/01/07 06:21:19;;;;;;;55.63;25.50;;;;;;;;;;5019293;28;20487;-84
2022/01/07 06:23:45;;;;;;;61.42;29.85;;;;;;;;;;5036843;28;20083;-84
2022/01/07 06:26:11;;;;;;;76.68;36.50;;;;;;;;;;5019091;28;20037;-84
2022/01/07 06:28:38;;;;;;;86.60;38.75;;;;;;;;;;5018903;28;20476;-84
2022/01/07 06:31:04;;;;;;;68.65;32.33;;;;;;;;;;5036415;28;20076;-84
2022/01/07 06:33:30;;;;;;;60.42;30.02;;;;;;;;;;5018721;28;20057;-84
2022/01/07 06:35:56;;;;;;;55.58;27.02;;;;;;;;;;5002829;28;20044;-85
2022/01/07 06:38:23;;;;;;;60.95;28.13;;;;;;;;;;5018831;28;20034;-85
2022/01/07 06:40:49;;;;;;;43.78;22.67;;;;;;;;;;5018557;28;20568;-84
2022/01/07 06:43:15;;;;;;;42.13;22.27;;;;;;;;;;5018705;28;20036;-84
2022/01/07 06:45:41;;;;;;;46.72;23.08;;;;;;;;;;5018798;28;20053;-84
2022/01/07 06:48:08;;;;;;;48.67;24.10;;;;;;;;;;5018561;28;20025;-85
2022/01/07 06:50:34;;;;;;;50.40;26.70;;;;;;;;;;5018556;28;20033;-84
2022/01/07 06:53:01;;;;;;;45.75;23.25;;;;;;;;;;5018279;28;20060;-84
2022/01/07 06:55:27;;;;;;;54.13;27.35;;;;;;;;;;5018608;28;20029;-85
2022/01/07 06:57:53;;;;;;;50.75;24.92;;;;;;;;;;5018361;28;20036;-85
2022/01/07 07:00:19;;;;;;;49.33;26.88;;;;;;;;;;5018546;28;20040;-84
2022/01/07 07:02:46;;;;;;;45.35;22.50;;;;;;;;;;5018153;28;20488;-84
2022/01/07 07:05:12;;;;;;;36.22;19.52;;;;;;;;;;5018431;28;20084;-85
2022/01/07 07:07:38;;;;;;;34.15;18.67;;;;;;;;;;5018119;28;20033;-84
2022/01/07 07:10:05;;;;;;;38.10;18.98;;;;;;;;;;5018092;28;20029;-84
2022/01/07 07:12:31;;;;;;;30.13;16.27;;;;;;;;;;5018252;28;20149;-83
2022/01/07 07:14:57;;;;;;;35.22;19.55;;;;;;;;;;5036188;28;20037;-84
2022/01/07 07:17:24;;;;;;;34.35;18.33;;;;;;;;;;5018000;28;20033;-84
2022/01/07 07:19:51;;;;;;;37.63;19.42;;;;;;;;;;5018340;28;20103;-84
2022/01/07 07:22:17;;;;;;;30.67;17.15;;;;;;;;;;5017968;28;20030;-84
2022/01/07 07:24:43;;;;;;;30.02;16.35;;;;;;;;;;5017870;28;20091;-83
2022/01/07 07:27:10;;;;;;;33.20;17.25;;;;;;;;;;5017902;28;20035;-84
2022/01/07 07:29:36;;;;;;;33.15;18.20;;;;;;;;;;5001775;28;20038;-84
2022/01/07 07:32:06;;;;;;;32.08;17.40;;;;;;;;;;5035905;28;20120;-84
2022/01/07 07:34:55;;;;;;;34.95;17.90;;;;;;;;;;5017804;28;20049;-84
2022/01/07 07:37:19;;;;;;;38.38;20.80;;;;;;;;;;5035371;28;20033;-84
2022/01/07 07:39:45;;;;;;;41.50;20.42;;;;;;;;;;5017694;28;20068;-84
2022/01/07 07:42:11;;;;;;;34.25;18.50;;;;;;;;;;5035562;28;20029;-84
2022/01/07 07:44:38;;;;;;;43.75;22.77;;;;;;;;;;5017914;28;20107;-84
2022/01/07 07:47:04;;;;;;;33.65;18.02;;;;;;;;;;5017524;28;20041;-83
2022/01/07 07:49:30;;;;;;;36.88;19.02;;;;;;;;;;5035010;28;20426;-83
2022/01/07 07:51:57;;;;;;;31.05;16.67;;;;;;;;;;5017844;28;20114;-84
2022/01/07 07:54:24;;;;;;;27.70;14.43;;;;;;;;;;5017397;28;20102;-84
2022/01/07 07:56:50;;;;;;;27.20;15.38;;;;;;;;;;5017398;28;20040;-84
2022/01/07 07:59:16;;;;;;;31.25;15.93;;;;;;;;;;5017287;28;20037;-84
2022/01/07 08:01:42;;;;;;;33.35;18.63;;;;;;;;;;5017156;28;20394;-84
2022/01/07 08:04:12;;;;;;;32.13;16.90;;;;;;;;;;5017216;28;20037;-84
2022/01/07 08:06:38;;;;;;;37.30;17.98;;;;;;;;;;5035000;28;20109;-83
2022/01/07 08:09:04;;;;;;;31.10;17.70;;;;;;;;;;5016968;28;20091;-84
2022/01/07 08:11:37;;;;;;;36.83;18.42;;;;;;;;;;5016968;28;20361;-83
2022/01/07 08:16:49;;;;;;;35.38;19.42;;;;;;;;;;5034992;28;20049;-83
2022/01/07 08:19:15;;;;;;;40.33;21.30;;;;;;;;;;5016982;28;20052;-84
2022/01/07 08:21:41;;;;;;;43.80;25.83;;;;;;;;;;5016861;28;20030;-83
2022/01/07 08:24:08;;;;;;;38.03;20.50;;;;;;;;;;5016659;28;20085;-83
2022/01/07 08:26:34;;;;;;;36.20;19.38;;;;;;;;;;5016876;28;20026;-84
2022/01/07 08:29:05;;;;;;;36.10;18.77;;;;;;;;;;5015931;28;20029;-84
2022/01/07 08:36:43;;;;;;;45.90;25.48;;;;;;;;;;5034633;28;20096;-84
2022/01/07 08:39:10;;;;;;;50.38;28.15;;;;;;;;;;5016565;28;20107;-83
2022/01/07 08:41:37;;;;;;;52.70;28.75;;;;;;;;;;5016581;28;20033;-84
2022/01/07 08:44:04;;;;;;;52.53;27.67;;;;;;;;;;5034019;28;20041;-84
2022/01/07 08:46:31;;;;;;;59.72;31.17;;;;;;;;;;5016485;28;20033;-84
2022/01/07 08:48:57;;;;;;;56.13;29.67;;;;;;;;;;5016371;28;20036;-83
2022/01/07 08:51:25;;;;;;;66.20;31.55;;;;;;;;;;5016423;28;20044;-84
2022/01/07 08:53:52;;;;;;;68.57;37.90;;;;;;;;;;5033772;28;20042;-84
2022/01/07 08:56:18;;;;;;;50.15;26.17;;;;;;;;;;5016221;28;20614;-84
2022/01/07 08:58:44;;;;;;;49.63;26.48;;;;;;;;;;5000222;28;20472;-84
2022/01/07 09:01:11;;;;;;;56.53;28.48;;;;;;;;;;5016295;28;20040;-84
2022/01/07 09:03:37;;;;;;;61.88;30.48;;;;;;;;;;5016218;28;20030;-84
2022/01/07 09:06:04;;;;;;;78.10;35.90;;;;;;;;;;5008221;28;20029;-84
2022/01/07 09:08:31;;;;;;;73.50;36.53;;;;;;;;;;5016027;28;20083;-84
2022/01/07 09:10:57;;;;;;;81.75;40.72;;;;;;;;;;5015908;28;20045;-84
2022/01/07 09:13:23;;;;;;;86.32;42.20;;;;;;;;;;5016130;28;20120;-84
2022/01/07 09:15:49;;;;;;;76.13;38.63;;;;;;;;;;5016172;28;20029;-84
2022/01/07 09:18:16;;;;;;;62.08;31.95;;;;;;;;;;5016245;28;20440;-83
2022/01/07 09:20:44;;;;;;;66.05;33.45;;;;;;;;;;5016035;28;20048;-84
2022/01/07 09:23:10;;;;;;;59.25;32.92;;;;;;;;;;5016027;28;20448;-84
2022/01/07 09:25:37;;;;;;;162.25;74.97;;;;;;;;;;5015826;28;20495;-84
2022/01/07 09:28:05;;;;;;;133.98;63.85;;;;;;;;;;5015960;28;20060;-84
2022/01/07 09:30:31;;;;;;;92.30;46.22;;;;;;;;;;5015837;28;20038;-84
2022/01/07 09:32:57;;;;;;;73.75;38.70;;;;;;;;;;5015685;28;20153;-84
2022/01/07 09:35:24;;;;;;;64.35;33.78;;;;;;;;;;5015848;28;20038;-84
2022/01/07 09:37:50;;;;;;;62.05;32.50;;;;;;;;;;5034020;28;20104;-84
2022/01/07 09:40:17;;;;;;;71.38;37.35;;;;;;;;;;5017061;28;20030;-84
2022/01/07 09:42:57;;;;;;;57.65;30.45;;;;;;;;;;5037329;28;20044;-84
2022/01/07 09:45:24;;;;;;;66.72;33.58;;;;;;;;;;5019778;28;20487;-83
2022/01/07 09:47:51;;;;;;;66.32;34.78;;;;;;;;;;5037343;28;20045;-84
2022/01/07 09:50:17;;;;;;;75.75;38.38;;;;;;;;;;5019746;28;20045;-84
2022/01/07 09:52:43;;;;;;;83.70;40.38;;;;;;;;;;5019671;28;20032;-84
2022/01/07 09:55:10;;;;;;;66.97;33.80;;;;;;;;;;5019506;28;20029;-84
2022/01/07 09:57:36;;;;;;;85.85;41.10;;;;;;;;;;5019597;28;20068;-84
2022/01/07 10:00:03;;;;;;;70.90;36.80;;;;;;;;;;5019672;28;20033;-84
2022/01/07 10:02:29;;;;;;;77.10;39.28;;;;;;;;;;5003299;28;20040;-85
2022/01/07 10:04:55;;;;;;;82.93;42.65;;;;;;;;;;5037225;28;20029;-84
2022/01/07 10:07:23;;;;;;;95.55;46.33;;;;;;;;;;5019401;28;20038;-84
2022/01/07 10:10:10;;;;;;;106.57;50.90;;;;;;;;;;5019392;28;20113;-84
2022/01/07 10:12:48;;;;;;;91.65;44.78;;;;;;;;;;5019335;28;20111;-84
2022/01/07 10:15:16;;;;;;;87.65;42.47;;;;;;;;;;5036850;28;20032;-84
2022/01/07 10:17:43;;;;;;;101.28;45.33;;;;;;;;;;5019200;28;20044;-85
2022/01/07 10:20:15;;;;;;;104.75;47.72;;;;;;;;;;5019206;28;20037;-84
2022/01/07 10:22:56;;;;;;;92.32;41.47;;;;;;;;;;5019204;28;20033;-84
2022/01/07 10:25:24;;;;;;;96.53;40.67;;;;;;;;;;5018787;28;20061;-85
2022/01/07 10:27:50;;;;;;;83.68;39.08;;;;;;;;;;5018976;28;20088;-84
2022/01/07 10:30:26;;;;;;;78.63;36.00;;;;;;;;;;5018936;28;20037;-84
2022/01/07 10:32:56;;;;;;;88.10;37.67;;;;;;;;;;5018872;28;20053;-84
2022/01/07 10:35:23;;;;;;;107.70;44.40;;;;;;;;;;5018973;28;20033;-85
2022/01/07 10:37:50;;;;;;;120.65;51.58;;;;;;;;;;5018863;28;20026;-84
2022/01/07 10:40:23;;;;;;;112.88;46.50;;;;;;;;;;5018710;28;20041;-84
2022/01/07 10:42:50;;;;;;;104.97;43.92;;;;;;;;;;5018875;28;20037;-84
2022/01/07 10:45:17;;;;;;;96.93;41.30;;;;;;;;;;5018802;28;20033;-83
2022/01/07 10:47:49;;;;;;;106.72;42.50;;;;;;;;;;5018772;28;20041;-84
2022/01/07 10:50:23;;;;;;;106.53;42.10;;;;;;;;;;5036371;28;20034;-84
2022/01/07 10:52:51;;;;;;;81.03;35.53;;;;;;;;;;5018000;28;20029;-84
2022/01/07 10:55:21;;;;;;;96.15;36.78;;;;;;;;;;5036533;28;20030;-84
2022/01/07 10:57:49;;;;;;;81.65;34.83;;;;;;;;;;5036899;28;20030;-84
2022/01/07 11:00:17;;;;;;;90.03;39.28;;;;;;;;;;5018405;28;20088;-83
2022/01/07 11:02:44;;;;;;;135.93;48.83;;;;;;;;;;5018327;28;20392;-84
2022/01/07 11:05:11;;;;;;;116.18;47.83;;;;;;;;;;5018375;28;20041;-84
2022/01/07 11:07:37;;;;;;;97.13;44.95;;;;;;;;;;5018345;28;20034;-84
2022/01/07 11:10:05;;;;;;;112.40;45.90;;;;;;;;;;5018134;28;20045;-84
2022/01/07 11:12:31;;;;;;;112.13;49.78;;;;;;;;;;5018274;28;20034;-84
2022/01/07 11:14:58;;;;;;;101.60;43.05;;;;;;;;;;5018077;28;20391;-84
2022/01/07 11:17:26;;;;;;;107.20;43.08;;;;;;;;;;5035899;28;20057;-84
2022/01/07 11:19:57;;;;;;;124.40;48.65;;;;;;;;;;5018021;28;20518;-84
2022/01/07 11:22:24;;;;;;;143.65;53.42;;;;;;;;;;5018131;28;20033;-83
2022/01/07 11:25:11;;;;;;;144.48;54.00;;;;;;;;;;5017966;28;20116;-84
2022/01/07 11:28:00;;;;;;;124.85;50.42;;;;;;;;;;5018049;28;20029;-84
2022/01/07 11:30:29;;;;;;;118.80;47.38;;;;;;;;;;5017804;28;20052;-84
2022/01/07 11:32:56;;;;;;;107.15;43.42;;;;;;;;;;5017657;28;20049;-84
2022/01/07 11:35:23;;;;;;;106.70;43.78;;;;;;;;;;5035658;28;20112;-84
2022/01/07 11:37:51;;;;;;;112.38;48.00;;;;;;;;;;5017898;28;20121;-84
2022/01/07 11:40:32;;;;;;;112.95;46.13;;;;;;;;;;5017665;28;20083;-84
2022/01/07 11:43:16;;;;;;;152.18;57.63;;;;;;;;;;5035425;28;20034;-84
2022/01/07 11:45:43;;;;;;;139.70;55.45;;;;;;;;;;5035382;28;20029;-84
2022/01/07 11:48:14;;;;;;;172.15;61.47;;;;;;;;;;5017523;28;20030;-84
2022/01/07 11:50:47;;;;;;;152.30;58.22;;;;;;;;;;5017384;28;20045;-84
2022/01/07 11:53:14;;;;;;;140.35;54.13;;;;;;;;;;5017456;28;20034;-84
2022/01/07 11:55:41;;;;;;;163.65;63.55;;;;;;;;;;5017445;28;20033;-84
2022/01/07 11:58:12;;;;;;;135.13;57.85;;;;;;;;;;5035153;28;20117;-84
2022/01/07 12:00:59;;;;;;;195.18;70.05;;;;;;;;;;5017395;28;20061;-84
2022/01/07 12:03:31;;;;;;;168.52;57.28;;;;;;;;;;5034266;28;20112;-84
2022/01/07 12:05:58;;;;;;;191.45;62.67;;;;;;;;;;5017150;28;20034;-84
2022/01/07 12:08:40;;;;;;;135.07;51.30;;;;;;;;;;5017328;28;20511;-84
2022/01/07 12:11:08;;;;;;;135.63;50.70;;;;;;;;;;5016916;28;20041;-84
2022/01/07 12:13:40;;;;;;;135.98;50.97;;;;;;;;;;5017094;28;20128;-84
2022/01/07 12:16:10;;;;;;;147.75;52.67;;;;;;;;;;5009410;28;20033;-84
2022/01/07 12:18:37;;;;;;;147.95;57.00;;;;;;;;;;5017011;28;20124;-84
2022/01/07 12:21:03;;;;;;;170.82;60.95;;;;;;;;;;5016878;28;20037;-84
2022/01/07 12:23:29;;;;;;;146.85;53.20;;;;;;;;;;5017249;28;20052;-84
2022/01/07 12:25:57;;;;;;;124.80;49.13;;;;;;;;;;5017060;28;20037;-84
2022/01/07 12:28:24;;;;;;;125.22;46.25;;;;;;;;;;5016752;28;20086;-84
2022/01/07 12:30:51;;;;;;;153.85;54.25;;;;;;;;;;5016647;28;20131;-84
2022/01/07 12:33:18;;;;;;;113.82;48.20;;;;;;;;;;5016613;28;20160;-84
2022/01/07 12:35:44;;;;;;;134.38;49.00;;;;;;;;;;5016613;28;20480;-84
2022/01/07 12:38:18;;;;;;;152.13;53.13;;;;;;;;;;5016693;28;20437;-84
2022/01/07 12:40:51;;;;;;;183.07;59.70;;;;;;;;;;5034188;28;20041;-84
2022/01/07 12:43:20;;;;;;;243.15;74.70;;;;;;;;;;5016706;28;20104;-84
2022/01/07 12:45:57;;;;;;;207.55;75.00;;;;;;;;;;5034435;28;20034;-84
2022/01/07 12:48:40;;;;;;;210.13;72.18;;;;;;;;;;5016539;28;20484;-84
2022/01/07 12:51:07;;;;;;;230.10;87.60;;;;;;;;;;5034147;28;20092;-84
2022/01/07 12:53:34;;;;;;;208.40;82.07;;;;;;;;;;5016249;28;20040;-84
2022/01/07 12:56:19;;;;;;;227.45;86.85;;;;;;;;;;5016411;28;20033;-84
2022/01/07 12:58:45;;;;;;;222.63;83.88;;;;;;;;;;5016457;28;20037;-84
2022/01/07 13:01:22;;;;;;;225.48;80.85;;;;;;;;;;5016243;28;20095;-84
2022/01/07 13:04:00;;;;;;;224.95;82.85;;;;;;;;;;5016260;28;20033;-83
2022/01/07 13:06:26;;;;;;;208.68;77.18;;;;;;;;;;5016303;28;20033;-84
2022/01/07 13:08:52;;;;;;;203.73;74.90;;;;;;;;;;5016181;28;20036;-84
2022/01/07 13:11:19;;;;;;;220.05;77.05;;;;;;;;;;5033935;28;20049;-84
2022/01/07 13:13:45;;;;;;;200.65;76.07;;;;;;;;;;5016018;28;20033;-84
2022/01/07 13:16:12;;;;;;;204.45;73.90;;;;;;;;;;5016327;28;20033;-85
2022/01/07 13:18:40;;;;;;;291.92;88.57;;;;;;;;;;5015996;28;20084;-84
2022/01/07 13:21:06;;;;;;;283.27;92.22;;;;;;;;;;5033863;28;20029;-84
2022/01/07 13:23:37;;;;;;;270.08;90.00;;;;;;;;;;5016041;28;20049;-84
2022/01/07 13:26:03;;;;;;;255.80;89.65;;;;;;;;;;5015990;28;20044;-84
2022/01/07 13:28:34;;;;;;;214.45;78.70;;;;;;;;;;5016026;28;20057;-84
2022/01/07 13:31:01;;;;;;;248.88;89.25;;;;;;;;;;5033638;28;20468;-84
2022/01/07 13:33:29;;;;;;;257.70;87.57;;;;;;;;;;5015739;28;20080;-84
2022/01/07 13:35:59;;;;;;;201.38;74.60;;;;;;;;;;5033837;28;20079;-84
2022/01/07 13:38:26;;;;;;;208.32;75.90;;;;;;;;;;5033788;28;20034;-84
2022/01/07 13:41:05;;;;;;;250.63;84.70;;;;;;;;;;5015910;28;20040;-84
2022/01/07 13:43:32;;;;;;;250.38;81.30;;;;;;;;;;5015706;28;20428;-84
2022/01/07 13:46:09;;;;;;;184.23;68.78;;;;;;;;;;5015806;28;20361;-84
2022/01/07 13:48:47;;;;;;;182.40;65.97;;;;;;;;;;5015939;28;20033;-84
2022/01/07 13:51:13;;;;;;;178.80;66.10;;;;;;;;;;5015793;28;20133;-84
2022/01/07 13:53:40;;;;;;;190.95;66.85;;;;;;;;;;5033847;28;20034;-84
2022/01/07 13:56:07;;;;;;;199.40;72.20;;;;;;;;;;5015564;28;20476;-84
2022/01/07 13:58:34;;;;;;;234.50;81.05;;;;;;;;;;5033440;28;20037;-84
2022/01/07 14:01:06;;;;;;;199.00;73.60;;;;;;;;;;5015618;28;20061;-84
2022/01/07 14:03:49;;;;;;;303.25;93.05;;;;;;;;;;5015493;28;20033;-84
2022/01/07 14:06:19;;;;;;;370.50;113.05;;;;;;;;;;5033373;28;20104;-84
2022/01/07 14:08:45;;;;;;;309.77;100.45;;;;;;;;;;5033378;28;20029;-84
2022/01/07 14:11:12;;;;;;;358.48;111.63;;;;;;;;;;5015461;28;20038;-84
2022/01/07 14:13:39;;;;;;;302.45;105.30;;;;;;;;;;5015662;28;20034;-84
2022/01/07 14:16:05;;;;;;;302.95;99.55;;;;;;;;;;5015504;28;20057;-84
2022/01/07 14:18:36;;;;;;;269.27;95.28;;;;;;;;;;5015500;28;20034;-84
2022/01/07 14:21:06;;;;;;;255.75;92.70;;;;;;;;;;5033088;28;20033;-84